Time;durP1;ratioP1;P1;durP2;ratioP2;P2;SDS_P1;SDS_P2;PMS_P1;PMS_P2;Temp;Humidity;BMP_temperature;BMP_pressure;BME280_temperature;BME280_humidity;BME280_pressure;Samples;Min_cycle;Max_cycle;Signal;HPM_P1;HPM_P2
2021/05/30 00:00:00;;;;;;;57.77;2.50;;;9.20;1.00;;;;;;4991786;28;20502;-67
2021/05/30 00:02:26;;;;;;;57.73;2.50;;;9.30;1.00;;;;;;4992235;28;20532;-67
2021/05/30 00:04:53;;;;;;;57.87;2.47;;;8.80;1.00;;;;;;4992299;28;20887;-67
2021/05/30 00:07:22;;;;;;;57.70;2.50;;;8.90;1.00;;;;;;4991992;28;20582;-68
2021/05/30 00:09:48;;;;;;;57.67;2.40;;;8.80;1.00;;;;;;4992167;28;20959;-66
2021/05/30 00:12:16;;;;;;;57.80;2.40;;;8.90;1.00;;;;;;4992431;28;20544;-66
2021/05/30 00:14:42;;;;;;;57.73;2.37;;;8.90;1.00;;;;;;4994312;28;20949;-66
2021/05/30 00:17:08;;;;;;;57.83;2.40;;;9.20;1.00;;;;;;4995401;28;20477;-67
2021/05/30 00:19:35;;;;;;;57.93;2.50;;;8.70;1.00;;;;;;4995898;28;20961;-66
2021/05/30 00:22:01;;;;;;;57.77;2.47;;;8.70;1.00;;;;;;4995575;28;20457;-67
2021/05/30 00:24:28;;;;;;;57.77;2.50;;;8.60;1.00;;;;;;4995396;28;20538;-66
2021/05/30 00:26:54;;;;;;;57.70;2.47;;;8.60;1.00;;;;;;4995169;28;20575;-66
2021/05/30 00:29:22;;;;;;;57.67;2.47;;;8.60;1.00;;;;;;4995126;28;20539;-66
2021/05/30 00:31:48;;;;;;;57.77;2.60;;;8.50;1.00;;;;;;4995438;28;20538;-66
2021/05/30 00:34:14;;;;;;;58.20;3.10;;;9.00;1.00;;;;;;4995344;28;20451;-66
2021/05/30 00:36:41;;;;;;;57.93;2.60;;;8.50;1.00;;;;;;4994882;28;20201;-66
2021/05/30 00:39:07;;;;;;;57.77;2.47;;;8.50;1.00;;;;;;4995077;28;20451;-65
2021/05/30 00:41:33;;;;;;;57.80;2.40;;;8.40;1.00;;;;;;4995050;28;20543;-68
2021/05/30 00:44:00;;;;;;;57.83;2.60;;;8.40;1.00;;;;;;4994880;28;20542;-68
2021/05/30 00:46:29;;;;;;;57.67;2.47;;;8.30;1.00;;;;;;4994858;28;20577;-68
2021/05/30 00:48:56;;;;;;;57.97;3.10;;;8.30;1.00;;;;;;4994958;28;21054;-67
2021/05/30 00:51:22;;;;;;;57.77;2.90;;;8.30;1.00;;;;;;4995321;28;20534;-67
2021/05/30 00:53:49;;;;;;;58.05;2.70;;;8.20;1.00;;;;;;4994887;28;20454;-67
2021/05/30 00:56:15;;;;;;;57.87;2.63;;;8.20;1.00;;;;;;4994455;28;20232;-66
2021/05/30 00:58:42;;;;;;;57.78;2.67;;;8.70;1.00;;;;;;4995100;28;20480;-67
2021/05/30 01:01:09;;;;;;;58.20;2.70;;;8.50;1.00;;;;;;4995113;28;20217;-67
2021/05/30 01:03:37;;;;;;;57.97;2.72;;;8.20;1.00;;;;;;4994854;28;20252;-66
2021/05/30 01:06:04;;;;;;;57.97;2.63;;;8.10;1.00;;;;;;4994488;28;20643;-67
2021/05/30 01:08:31;;;;;;;57.90;2.53;;;8.10;1.00;;;;;;4994385;28;20504;-67
2021/05/30 01:10:59;;;;;;;57.97;2.75;;;8.60;1.00;;;;;;4994421;28;20245;-67
2021/05/30 01:13:27;;;;;;;58.00;2.67;;;8.50;1.00;;;;;;4994676;28;20213;-66
2021/05/30 01:15:54;;;;;;;58.08;2.53;;;8.40;1.00;;;;;;4994723;28;20488;-66
2021/05/30 01:18:22;;;;;;;58.05;2.70;;;8.00;1.00;;;;;;4994128;28;20232;-67
2021/05/30 01:20:50;;;;;;;57.77;2.70;;;8.00;1.00;;;;;;4994338;28;20299;-66
2021/05/30 01:23:18;;;;;;;58.08;2.60;;;8.40;1.00;;;;;;4994752;28;20538;-67
2021/05/30 01:25:45;;;;;;;58.05;2.63;;;8.40;1.00;;;;;;4993808;28;20227;-67
2021/05/30 01:28:12;;;;;;;57.88;2.55;;;8.00;1.00;;;;;;4994089;28;20796;-67
2021/05/30 01:30:38;;;;;;;58.08;2.65;;;8.40;1.00;;;;;;4994094;28;20299;-68
2021/05/30 01:33:05;;;;;;;58.08;2.80;;;8.30;1.00;;;;;;4994167;28;20212;-67
2021/05/30 01:35:33;;;;;;;58.10;2.80;;;7.90;1.00;;;;;;4994045;28;20216;-68
2021/05/30 01:37:59;;;;;;;57.88;2.65;;;8.00;1.00;;;;;;4993767;28;20734;-68
2021/05/30 01:40:27;;;;;;;58.30;3.30;;;7.80;1.00;;;;;;4994068;28;20237;-68
2021/05/30 01:42:55;;;;;;;57.77;2.47;;;7.80;1.00;;;;;;4994116;28;20594;-68
2021/05/30 01:45:24;;;;;;;57.97;2.65;;;7.80;1.00;;;;;;4993943;28;20447;-68
2021/05/30 01:47:50;;;;;;;57.85;2.60;;;7.80;1.00;;;;;;4993616;28;20234;-68
2021/05/30 01:50:19;;;;;;;57.97;2.50;;;7.80;1.00;;;;;;4993704;28;20342;-68
2021/05/30 01:52:47;;;;;;;57.97;2.40;;;7.80;1.00;;;;;;4993599;28;20300;-68
2021/05/30 01:55:20;;;;;;;57.88;2.78;;;7.80;1.00;;;;;;4993857;28;20211;-68
2021/05/30 01:57:49;;;;;;;57.85;2.60;;;7.80;1.00;;;;;;4993570;28;20321;-67
2021/05/30 02:00:17;;;;;;;57.88;2.58;;;7.80;1.00;;;;;;4993334;28;20307;-67
2021/05/30 02:02:45;;;;;;;58.20;2.60;;;7.80;1.00;;;;;;4993989;28;20318;-68
2021/05/30 02:05:12;;;;;;;57.78;2.53;;;7.70;1.00;;;;;;4993407;28;20680;-68
2021/05/30 02:07:40;;;;;;;57.88;2.50;;;7.70;1.00;;;;;;4993301;28;20385;-68
2021/05/30 02:10:07;;;;;;;57.67;2.38;;;7.70;1.00;;;;;;4993488;28;20212;-68
2021/05/30 02:12:35;;;;;;;57.95;2.50;;;7.70;1.00;;;;;;4993441;28;20433;-68
2021/05/30 02:15:03;;;;;;;57.67;2.50;;;7.70;1.00;;;;;;4993364;28;20284;-68
2021/05/30 02:17:30;;;;;;;57.65;2.45;;;7.60;1.00;;;;;;4992791;28;20547;-67
2021/05/30 02:19:57;;;;;;;58.10;2.60;;;7.60;1.00;;;;;;4993156;28;20259;-68
2021/05/30 02:22:23;;;;;;;57.78;2.38;;;7.60;1.00;;;;;;4993524;28;20294;-68
2021/05/30 02:24:50;;;;;;;57.88;2.50;;;7.50;1.00;;;;;;4993269;28;20637;-68
2021/05/30 02:27:16;;;;;;;57.97;2.42;;;7.50;1.00;;;;;;4992806;28;20652;-68
2021/05/30 02:29:44;;;;;;;57.97;2.67;;;7.40;1.00;;;;;;4992967;28;20204;-67
2021/05/30 02:32:13;;;;;;;57.67;2.50;;;7.50;1.00;;;;;;4992774;28;20219;-68
2021/05/30 02:34:42;;;;;;;57.78;2.70;;;7.40;1.00;;;;;;4993228;28;20247;-68
2021/05/30 02:37:09;;;;;;;57.70;2.45;;;7.40;1.00;;;;;;4991995;28;20229;-68
2021/05/30 02:39:36;;;;;;;57.80;2.35;;;7.40;1.00;;;;;;4992960;28;20209;-67
2021/05/30 02:42:03;;;;;;;58.17;2.50;;;7.40;1.00;;;;;;4993077;28;20366;-68
2021/05/30 02:44:29;;;;;;;58.00;2.70;;;7.40;1.00;;;;;;4992893;28;20282;-68
2021/05/30 02:46:56;;;;;;;58.08;2.78;;;7.40;1.00;;;;;;4992442;28;20264;-67
2021/05/30 02:49:24;;;;;;;57.97;2.67;;;7.30;1.00;;;;;;4992937;28;20212;-68
2021/05/30 02:51:50;;;;;;;57.97;2.58;;;7.40;1.00;;;;;;4992693;28;20216;-65
2021/05/30 02:54:17;;;;;;;57.88;2.38;;;7.30;1.00;;;;;;4992758;28;20204;-68
2021/05/30 02:56:43;;;;;;;58.20;2.83;;;7.40;1.00;;;;;;4992477;28;20204;-66
2021/05/30 02:59:10;;;;;;;57.88;2.60;;;7.30;1.00;;;;;;4992373;28;20223;-68
2021/05/30 03:01:36;;;;;;;58.08;2.58;;;7.40;1.00;;;;;;4992848;28;20247;-68
2021/05/30 03:04:03;;;;;;;57.97;2.65;;;7.30;1.00;;;;;;4992796;28;20290;-68
2021/05/30 03:06:30;;;;;;;58.08;2.70;;;7.20;1.00;;;;;;4992257;28;20228;-68
2021/05/30 03:08:58;;;;;;;57.70;2.67;;;7.20;1.00;;;;;;4992654;28;20213;-66
2021/05/30 03:11:25;;;;;;;57.88;2.50;;;7.20;1.00;;;;;;4992699;28;20209;-68
2021/05/30 03:13:52;;;;;;;58.17;2.70;;;7.20;1.00;;;;;;4992426;28;20314;-68
2021/05/30 03:16:19;;;;;;;58.05;2.67;;;7.10;1.00;;;;;;4992204;28;20679;-67
2021/05/30 03:18:45;;;;;;;57.88;2.80;;;7.10;1.00;;;;;;4992291;28;20250;-68
2021/05/30 03:21:12;;;;;;;57.75;2.60;;;7.10;1.00;;;;;;4992546;28;20302;-67
2021/05/30 03:23:39;;;;;;;58.63;3.60;;;7.00;1.00;;;;;;4992678;28;20256;-68
2021/05/30 03:26:05;;;;;;;57.97;2.67;;;7.00;1.00;;;;;;4992178;28;20228;-68
2021/05/30 03:28:31;;;;;;;58.00;2.55;;;7.00;1.00;;;;;;4992097;28;20901;-68
2021/05/30 03:30:58;;;;;;;57.88;2.70;;;7.00;1.00;;;;;;4992496;28;20208;-68
2021/05/30 03:33:24;;;;;;;57.65;2.50;;;7.00;1.00;;;;;;4992512;28;20240;-68
2021/05/30 03:35:51;;;;;;;57.88;2.70;;;6.90;1.00;;;;;;4992508;28;20235;-68
2021/05/30 03:38:20;;;;;;;57.88;2.45;;;6.90;1.00;;;;;;4991989;28;20739;-67
2021/05/30 03:40:48;;;;;;;57.97;2.50;;;6.90;1.00;;;;;;4992285;28;20211;-68
2021/05/30 03:43:15;;;;;;;57.85;2.70;;;6.90;1.00;;;;;;4992126;28;20220;-68
2021/05/30 03:45:42;;;;;;;57.97;2.40;;;6.80;1.00;;;;;;4992181;28;20642;-68
2021/05/30 03:48:08;;;;;;;57.78;2.50;;;6.80;1.00;;;;;;4991922;28;20720;-68
2021/05/30 03:50:35;;;;;;;57.97;2.60;;;6.80;1.00;;;;;;4995834;28;20691;-68
2021/05/30 03:53:02;;;;;;;57.85;2.65;;;6.80;1.00;;;;;;4995958;28;20303;-67
2021/05/30 03:55:28;;;;;;;57.95;2.67;;;6.80;1.00;;;;;;4995917;28;20636;-67
2021/05/30 03:57:56;;;;;;;57.78;2.67;;;6.80;1.00;;;;;;4995457;28;20342;-68
2021/05/30 04:00:23;;;;;;;58.17;2.58;;;6.70;1.00;;;;;;4995641;28;20236;-68
2021/05/30 04:02:49;;;;;;;57.78;2.42;;;6.80;1.00;;;;;;4995837;28;20323;-68
2021/05/30 04:05:16;;;;;;;57.90;2.67;;;6.80;1.00;;;;;;4995666;28;20213;-68
2021/05/30 04:07:44;;;;;;;57.88;2.30;;;6.80;1.00;;;;;;4995375;28;20242;-69
2021/05/30 04:10:12;;;;;;;57.90;2.47;;;6.80;1.00;;;;;;4995437;28;20211;-66
2021/05/30 04:12:40;;;;;;;57.75;2.65;;;6.80;1.00;;;;;;4995497;28;20218;-66
2021/05/30 04:15:09;;;;;;;57.88;2.42;;;6.90;1.00;;;;;;4995456;28;20212;-65
2021/05/30 04:17:36;;;;;;;57.75;2.40;;;6.80;1.00;;;;;;4995448;28;20314;-66
2021/05/30 04:20:04;;;;;;;58.00;2.40;;;6.80;1.00;;;;;;4995584;28;20294;-66
2021/05/30 04:22:30;;;;;;;57.67;2.33;;;6.80;1.00;;;;;;4995261;28;20211;-66
2021/05/30 04:24:56;;;;;;;58.17;2.75;;;6.80;1.00;;;;;;4995571;28;20690;-69
2021/05/30 04:27:23;;;;;;;58.00;2.50;;;6.90;1.00;;;;;;4995014;28;20231;-68
2021/05/30 04:29:49;;;;;;;57.88;3.03;;;6.80;1.00;;;;;;4995346;28;20293;-67
2021/05/30 04:32:16;;;;;;;58.05;2.30;;;6.90;1.00;;;;;;4995384;28;20211;-67
2021/05/30 04:34:43;;;;;;;57.78;2.50;;;6.90;1.00;;;;;;4995295;28;20292;-66
2021/05/30 04:37:09;;;;;;;57.75;2.35;;;7.00;1.00;;;;;;4994792;28;20224;-67
2021/05/30 04:39:35;;;;;;;57.78;2.45;;;7.00;1.00;;;;;;4995222;28;20215;-67
2021/05/30 04:42:03;;;;;;;57.88;2.60;;;7.00;1.00;;;;;;4995314;28;20235;-67
2021/05/30 04:44:29;;;;;;;57.88;2.55;;;7.00;1.00;;;;;;4995139;28;20208;-67
2021/05/30 04:46:56;;;;;;;57.67;2.40;;;7.10;1.00;;;;;;4994689;28;20235;-68
2021/05/30 04:49:23;;;;;;;58.00;2.50;;;7.10;1.00;;;;;;4994878;28;20692;-68
2021/05/30 04:51:49;;;;;;;57.97;2.50;;;7.10;1.00;;;;;;4994828;28;20294;-67
2021/05/30 04:54:15;;;;;;;57.90;2.60;;;7.20;1.00;;;;;;4995043;28;20294;-67
2021/05/30 04:56:42;;;;;;;57.67;2.50;;;7.20;1.00;;;;;;4994732;28;20637;-67
2021/05/30 04:59:08;;;;;;;57.78;2.25;;;7.30;1.00;;;;;;4994631;28;20572;-67
2021/05/30 05:01:35;;;;;;;57.80;2.40;;;7.30;1.00;;;;;;4993795;28;20213;-67
2021/05/30 05:04:02;;;;;;;57.67;2.38;;;7.40;1.00;;;;;;4994764;28;20209;-68
2021/05/30 05:06:29;;;;;;;58.40;3.60;;;7.40;1.00;;;;;;4994249;28;20226;-68
2021/05/30 05:08:56;;;;;;;57.88;2.38;;;7.50;1.00;;;;;;4994611;28;20473;-68
2021/05/30 05:11:22;;;;;;;57.97;2.40;;;7.60;1.00;;;;;;4994493;28;20683;-68
2021/05/30 05:13:48;;;;;;;57.77;2.50;;;7.60;1.00;;;;;;4994452;28;20772;-67
2021/05/30 05:16:15;;;;;;;57.63;2.30;;;7.70;1.00;;;;;;4994212;28;20986;-67
2021/05/30 05:18:41;;;;;;;57.78;2.38;;;7.80;1.00;;;;;;4994337;28;20986;-67
2021/05/30 05:21:07;;;;;;;57.60;2.27;;;7.80;1.00;;;;;;4994303;28;20244;-68
2021/05/30 05:23:34;;;;;;;57.78;2.38;;;7.90;1.00;;;;;;4994600;28;20542;-66
2021/05/30 05:26:02;;;;;;;57.78;2.50;;;8.00;1.00;;;;;;4994371;28;20311;-68
2021/05/30 05:28:29;;;;;;;58.00;2.60;;;8.00;1.00;;;;;;4994138;28;20232;-67
2021/05/30 05:30:56;;;;;;;57.80;2.50;;;8.10;1.00;;;;;;4994135;28;20243;-68
2021/05/30 05:33:23;;;;;;;57.80;2.40;;;8.20;1.00;;;;;;4993982;28;20685;-66
2021/05/30 05:35:50;;;;;;;58.00;3.10;;;8.30;1.00;;;;;;4994012;28;20244;-67
2021/05/30 05:38:16;;;;;;;57.70;2.60;;;8.30;1.00;;;;;;4993643;28;20471;-67
2021/05/30 05:40:44;;;;;;;57.57;2.50;;;8.40;1.00;;;;;;4994117;28;20459;-68
2021/05/30 05:43:11;;;;;;;57.67;2.57;;;8.40;1.00;;;;;;4993988;28;20451;-65
2021/05/30 05:45:38;;;;;;;57.70;2.50;;;8.50;1.00;;;;;;4993829;28;20458;-66
2021/05/30 05:48:10;;;;;;;57.73;2.53;;;8.60;1.00;;;;;;4993410;28;20496;-67
2021/05/30 05:50:36;;;;;;;57.77;2.53;;;8.70;1.00;;;;;;4993699;28;20451;-66
2021/05/30 05:53:03;;;;;;;57.53;2.50;;;8.70;1.00;;;;;;4993881;28;20452;-66
2021/05/30 05:55:29;;;;;;;57.43;2.60;;;8.80;1.00;;;;;;4993817;28;20496;-67
2021/05/30 05:57:56;;;;;;;57.87;2.47;;;8.90;1.00;;;;;;4993386;28;20612;-67
2021/05/30 06:00:24;;;;;;;57.67;2.37;;;9.00;1.00;;;;;;4993804;28;20507;-67
2021/05/30 06:02:51;;;;;;;57.87;2.57;;;9.10;1.00;;;;;;4993514;28;20488;-66
2021/05/30 06:05:19;;;;;;;57.47;2.30;;;9.20;1.00;;;;;;4993844;28;20528;-67
2021/05/30 06:07:46;;;;;;;57.50;2.27;;;9.30;1.00;;;;;;4993304;28;20492;-66
2021/05/30 06:10:14;;;;;;;57.90;2.57;;;9.40;1.00;;;;;;4993383;28;20537;-66
2021/05/30 06:12:40;;;;;;;57.63;2.50;;;9.50;1.00;;;;;;4993217;28;20553;-66
2021/05/30 06:15:09;;;;;;;57.53;2.37;;;9.60;1.00;;;;;;4993227;28;20465;-67
2021/05/30 06:17:36;;;;;;;57.67;2.50;;;9.60;1.00;;;;;;4992931;28;20556;-67
2021/05/30 06:20:03;;;;;;;58.10;3.10;;;9.70;1.00;;;;;;4993298;28;20568;-67
2021/05/30 06:22:29;;;;;;;57.57;2.27;;;9.80;1.00;;;;;;4993354;28;20536;-67
2021/05/30 06:24:55;;;;;;;57.37;2.30;;;10.00;1.00;;;;;;4993270;28;20481;-67
2021/05/30 06:27:21;;;;;;;57.53;2.40;;;10.20;1.00;;;;;;4992767;28;20580;-66
2021/05/30 06:29:48;;;;;;;57.67;2.47;;;10.30;1.00;;;;;;4993030;28;20545;-67
2021/05/30 06:32:15;;;;;;;57.37;2.30;;;10.40;1.00;;;;;;4993272;28;20482;-67
2021/05/30 06:34:41;;;;;;;57.37;2.43;;;10.50;1.00;;;;;;4993174;28;20466;-66
2021/05/30 06:37:08;;;;;;;57.53;2.40;;;10.70;1.00;;;;;;4992611;28;20467;-67
2021/05/30 06:39:34;;;;;;;57.70;2.50;;;10.80;1.00;;;;;;4993050;28;21014;-67
2021/05/30 06:42:01;;;;;;;57.47;2.50;;;10.90;1.00;;;;;;4992837;28;20451;-67
2021/05/30 06:44:27;;;;;;;57.57;2.50;;;11.00;1.00;;;;;;4992848;28;20959;-67
2021/05/30 06:46:53;;;;;;;57.63;3.00;;;11.10;1.00;;;;;;4992462;28;20494;-67
2021/05/30 06:49:21;;;;;;;57.53;2.70;;;11.30;1.00;;;;;;4992790;28;20446;-66
2021/05/30 06:51:47;;;;;;;57.57;2.47;;;11.40;1.00;;;;;;4992658;28;20504;-67
2021/05/30 06:54:13;;;;;;;57.57;2.37;;;11.50;1.00;;;;;;4993115;28;20541;-67
2021/05/30 06:56:40;;;;;;;57.57;2.47;;;11.60;1.00;;;;;;4992391;28;20757;-67
2021/05/30 06:59:06;;;;;;;57.83;2.50;;;11.80;1.00;;;;;;4992684;28;20550;-67
2021/05/30 07:01:32;;;;;;;57.67;2.40;;;11.90;1.00;;;;;;4992892;28;20891;-67
2021/05/30 07:03:59;;;;;;;57.47;2.40;;;12.00;1.00;;;;;;4992916;28;20479;-67
2021/05/30 07:06:26;;;;;;;57.67;2.40;;;12.10;1.00;;;;;;4992307;28;20508;-67
2021/05/30 07:08:52;;;;;;;57.47;2.30;;;12.20;1.00;;;;;;4992324;28;21078;-66
2021/05/30 07:11:18;;;;;;;57.67;2.50;;;12.40;1.00;;;;;;4992352;28;20549;-66
2021/05/30 07:13:45;;;;;;;57.43;2.50;;;12.60;1.00;;;;;;4992622;28;20553;-67
2021/05/30 07:16:11;;;;;;;57.27;2.30;;;12.70;1.00;;;;;;4992414;28;20554;-67
2021/05/30 07:18:38;;;;;;;57.67;2.40;;;12.90;1.00;;;;;;4992356;28;20505;-68
2021/05/30 07:21:04;;;;;;;57.37;2.30;;;13.00;1.00;;;;;;4992512;28;20487;-68
2021/05/30 07:23:32;;;;;;;57.47;2.50;;;13.10;1.00;;;;;;4992900;28;20962;-67
2021/05/30 07:25:58;;;;;;;57.60;2.60;;;13.20;1.00;;;;;;4996166;28;20481;-66
2021/05/30 07:28:24;;;;;;;57.07;2.40;;;13.40;1.00;;;;;;4996194;28;21018;-67
2021/05/30 07:30:51;;;;;;;57.37;2.30;;;13.50;1.00;;;;;;4996501;28;20808;-67
2021/05/30 07:33:17;;;;;;;57.57;2.47;;;13.70;1.00;;;;;;4996732;28;20447;-67
2021/05/30 07:35:44;;;;;;;57.30;2.40;;;13.80;1.00;;;;;;4996344;28;20454;-67
2021/05/30 07:38:10;;;;;;;57.80;2.30;;;14.00;1.00;;;;;;4996260;28;20494;-67
2021/05/30 07:40:38;;;;;;;57.47;2.30;;;14.10;1.00;;;;;;4996066;28;20529;-67
2021/05/30 07:43:04;;;;;;;57.47;2.50;;;14.30;1.00;;;;;;4996400;28;20447;-67
2021/05/30 07:45:30;;;;;;;57.27;2.70;;;14.50;1.00;;;;;;4996220;28;20537;-67
2021/05/30 07:47:58;;;;;;;57.60;2.43;;;14.70;1.00;;;;;;4995840;28;20581;-67
2021/05/30 07:50:24;;;;;;;57.47;2.30;;;14.90;1.00;;;;;;4996019;28;20542;-66
2021/05/30 07:52:51;;;;;;;57.37;2.20;;;15.00;1.00;;;;;;4995824;28;20443;-66
2021/05/30 07:55:18;;;;;;;57.80;2.50;;;15.20;1.00;;;;;;4995859;28;20822;-67
2021/05/30 07:57:47;;;;;;;57.70;2.20;;;15.40;1.00;;;;;;4995703;28;20560;-66
2021/05/30 08:00:16;;;;;;;58.00;2.50;;;15.50;1.00;;;;;;4995766;28;20498;-67
2021/05/30 08:02:42;;;;;;;57.30;2.30;;;15.60;1.00;;;;;;4995819;28;20497;-66
2021/05/30 08:05:11;;;;;;;57.33;2.30;;;15.80;1.00;;;;;;4995763;28;20591;-67
2021/05/30 08:07:37;;;;;;;57.23;2.40;;;15.90;1.00;;;;;;4995178;28;20493;-67
2021/05/30 08:10:05;;;;;;;57.70;2.40;;;16.00;1.00;;;;;;4995804;28;20453;-67
2021/05/30 08:12:31;;;;;;;57.27;2.20;;;16.20;1.00;;;;;;4995715;28;20566;-67
2021/05/30 08:14:59;;;;;;;57.57;2.57;;;16.30;1.00;;;;;;4995783;28;20491;-67
2021/05/30 08:17:25;;;;;;;57.63;2.40;;;16.40;1.00;;;;;;4995361;28;20543;-66
2021/05/30 08:19:52;;;;;;;57.23;2.20;;;16.50;1.00;;;;;;4995426;28;20543;-67
2021/05/30 08:22:18;;;;;;;57.17;2.20;;;16.60;1.00;;;;;;4995556;28;20538;-66
2021/05/30 08:24:47;;;;;;;57.27;2.10;;;16.80;1.00;;;;;;4995349;28;20487;-67
2021/05/30 08:27:13;;;;;;;57.27;2.50;;;16.90;1.00;;;;;;4995124;28;20488;-66
2021/05/30 08:29:39;;;;;;;57.03;2.60;;;17.00;1.00;;;;;;4995365;28;20870;-67
2021/05/30 08:32:08;;;;;;;57.60;2.30;;;17.10;1.00;;;;;;4995419;28;20538;-67
2021/05/30 08:34:34;;;;;;;57.43;2.27;;;17.30;1.00;;;;;;4994793;28;20734;-66
2021/05/30 08:37:00;;;;;;;57.50;2.10;;;17.40;1.00;;;;;;4994410;28;20492;-67
2021/05/30 08:39:27;;;;;;;57.60;2.30;;;17.50;1.00;;;;;;4995232;28;20881;-67
2021/05/30 08:41:53;;;;;;;57.50;2.30;;;;;;;;;;4995169;28;21067;-68
2021/05/30 08:44:20;;;;;;;57.67;2.23;;;17.70;1.00;;;;;;4995135;28;20873;-68
2021/05/30 08:46:46;;;;;;;57.50;2.10;;;17.80;1.00;;;;;;4994765;28;20493;-67
2021/05/30 08:49:14;;;;;;;57.47;2.20;;;17.90;1.00;;;;;;4994811;28;20850;-68
2021/05/30 08:51:41;;;;;;;57.63;2.27;;;18.00;1.00;;;;;;4995101;28;20597;-67
2021/05/30 08:54:10;;;;;;;57.13;2.40;;;18.10;1.00;;;;;;4995010;28;20600;-67
2021/05/30 08:56:38;;;;;;;57.33;2.27;;;18.30;1.00;;;;;;4994497;28;20452;-68
2021/05/30 08:59:16;;;;;;;57.37;2.20;;;18.50;1.00;;;;;;4994633;28;20477;-68
2021/05/30 09:01:44;;;;;;;57.33;2.27;;;18.80;1.00;;;;;;4994623;28;20453;-68
2021/05/30 09:04:11;;;;;;;57.10;2.10;;;18.90;1.00;;;;;;4994918;28;20482;-67
2021/05/30 09:06:39;;;;;;;57.17;2.10;;;19.10;1.00;;;;;;4994251;28;20570;-68
2021/05/30 09:09:07;;;;;;;57.43;2.60;;;19.30;1.00;;;;;;4994434;28;20520;-68
2021/05/30 09:11:42;;;;;;;57.47;2.30;;;19.30;1.00;;;;;;4994696;28;20447;-67
2021/05/30 09:14:13;;;;;;;57.17;2.20;;;19.10;1.00;;;;;;4994406;28;20532;-67
2021/05/30 09:16:52;;;;;;;57.47;2.20;;;19.00;1.00;;;;;;4994435;28;20458;-68
2021/05/30 09:19:47;;;;;;;57.47;2.40;;;18.90;1.00;;;;;;4994538;28;20461;-68
2021/05/30 09:22:26;;;;;;;57.47;2.20;;;18.90;1.00;;;;;;4994374;28;20958;-68
2021/05/30 09:25:19;;;;;;;57.27;2.20;;;19.00;1.00;;;;;;4994260;28;20529;-68
2021/05/30 09:28:01;;;;;;;57.07;2.30;;;19.00;1.00;;;;;;4993947;28;20581;-68
2021/05/30 09:30:30;;;;;;;57.67;2.77;;;18.90;1.00;;;;;;4994217;28;20459;-68
2021/05/30 09:33:14;;;;;;;57.30;2.30;;;18.90;1.00;;;;;;4994077;28;20459;-67
2021/05/30 09:35:46;;;;;;;57.50;2.50;;;19.00;1.00;;;;;;4994139;28;20962;-67
2021/05/30 09:38:15;;;;;;;56.97;2.20;;;19.10;1.00;;;;;;4993974;28;20470;-68
2021/05/30 09:40:44;;;;;;;57.50;2.30;;;19.20;1.00;;;;;;4994143;28;20544;-67
2021/05/30 09:43:13;;;;;;;57.30;2.10;;;19.50;1.00;;;;;;4994074;28;20490;-68
2021/05/30 09:45:41;;;;;;;57.57;2.40;;;19.90;1.00;;;;;;4993846;28;20510;-68
2021/05/30 09:48:18;;;;;;;57.37;2.20;;;20.10;1.00;;;;;;4993085;28;21039;-68
2021/05/30 09:51:02;;;;;;;57.47;2.10;;;20.50;1.00;;;;;;4993984;28;20454;-67
2021/05/30 09:53:30;;;;;;;57.60;2.30;;;20.80;1.00;;;;;;4993751;28;20559;-67
2021/05/30 09:55:56;;;;;;;57.40;2.17;;;21.10;1.00;;;;;;4993518;28;20456;-67
2021/05/30 09:58:24;;;;;;;57.50;2.10;;;21.30;1.00;;;;;;4993677;28;20542;-66
2021/05/30 10:00:59;;;;;;;57.07;2.03;;;21.50;1.00;;;;;;4993541;28;20471;-67
2021/05/30 10:03:27;;;;;;;57.70;2.20;;;21.40;1.00;;;;;;4993697;28;20464;-68
2021/05/30 10:05:53;;;;;;;57.13;2.30;;;21.20;1.00;;;;;;4993565;28;20531;-67
2021/05/30 10:08:22;;;;;;;57.17;2.10;;;21.10;1.00;;;;;;4992979;28;20587;-67
2021/05/30 10:10:49;;;;;;;57.27;2.37;;;21.20;1.00;;;;;;4993710;28;20452;-68
2021/05/30 10:13:16;;;;;;;57.50;2.30;;;21.30;1.00;;;;;;4993824;28;20502;-67
2021/05/30 10:15:43;;;;;;;57.33;2.20;;;21.70;1.00;;;;;;4993415;28;20961;-67
2021/05/30 10:18:15;;;;;;;57.37;2.43;;;22.30;1.00;;;;;;4993447;28;20469;-67
2021/05/30 10:20:42;;;;;;;57.17;2.00;;;23.30;1.00;;;;;;4993586;28;20541;-68
2021/05/30 10:23:10;;;;;;;57.43;2.10;;;24.80;1.00;;;;;;4993304;28;20454;-68
2021/05/30 10:25:37;;;;;;;57.37;1.87;;;26.30;1.00;;;;;;4993368;28;20489;-68
2021/05/30 10:28:13;;;;;;;57.30;2.17;;;27.50;1.00;;;;;;4992907;28;20513;-68
2021/05/30 10:30:40;;;;;;;57.17;1.83;;;28.30;1.00;;;;;;4993206;28;20913;-68
2021/05/30 10:33:12;;;;;;;56.97;2.00;;;29.10;1.00;;;;;;4993058;28;20455;-68
2021/05/30 10:35:40;;;;;;;57.10;1.87;;;29.70;1.00;;;;;;4992892;28;20462;-68
2021/05/30 10:38:07;;;;;;;56.87;1.97;;;30.20;1.00;;;;;;4992809;28;20551;-68
2021/05/30 10:40:38;;;;;;;70.33;3.00;;;30.20;1.00;;;;;;4992895;28;20566;-68
2021/05/30 10:43:20;;;;;;;57.07;1.90;;;29.40;1.00;;;;;;4992901;28;20943;-68
2021/05/30 10:46:06;;;;;;;56.93;2.10;;;28.90;1.00;;;;;;4992797;28;20451;-68
2021/05/30 10:48:33;;;;;;;57.13;2.00;;;29.60;1.00;;;;;;4992861;28;20574;-68
2021/05/30 10:53:52;;;;;;;56.67;1.80;;;31.20;1.00;;;;;;4988074;28;20444;-68
2021/05/30 10:56:29;;;;;;;56.73;1.60;;;31.30;1.00;;;;;;4992422;28;20487;-68
2021/05/30 10:59:33;;;;;;;56.77;1.73;;;31.30;1.00;;;;;;4991948;28;20882;-68
2021/05/30 11:02:03;;;;;;;56.90;1.80;;;31.80;1.00;;;;;;4992958;28;20443;-66
2021/05/30 11:04:35;;;;;;;56.77;1.70;;;32.30;1.00;;;;;;4992655;28;20486;-66
2021/05/30 11:07:18;;;;;;;57.00;1.70;;;32.80;1.00;;;;;;4992169;28;20525;-66
2021/05/30 11:10:09;;;;;;;56.53;1.70;;;33.30;1.00;;;;;;4983802;28;20468;-67
2021/05/30 11:12:47;;;;;;;56.80;1.60;;;33.40;1.00;;;;;;4992467;28;21033;-67
2021/05/30 11:15:27;;;;;;;56.63;1.60;;;32.40;1.00;;;;;;4992459;28;20549;-66
2021/05/30 11:17:56;;;;;;;57.00;1.80;;;31.30;1.00;;;;;;4992162;28;20477;-67
2021/05/30 11:20:26;;;;;;;56.83;1.73;;;30.50;1.00;;;;;;4992432;28;20537;-67
2021/05/30 11:22:54;;;;;;;56.97;1.90;;;31.10;1.00;;;;;;4992347;28;20453;-68
2021/05/30 11:25:23;;;;;;;56.77;1.70;;;31.00;1.00;;;;;;4992332;28;20450;-67
2021/05/30 11:27:59;;;;;;;56.90;1.80;;;31.10;1.00;;;;;;4992444;28;20491;-67
2021/05/30 11:30:59;;;;;;;57.17;2.00;;;30.90;1.00;;;;;;4992488;28;20483;-66
2021/05/30 11:33:43;;;;;;;57.20;1.80;;;29.80;1.00;;;;;;4992402;28;20451;-67
2021/05/30 11:36:32;;;;;;;57.10;2.00;;;29.30;1.00;;;;;;4992242;28;20582;-67
2021/05/30 11:39:05;;;;;;;57.00;1.90;;;29.20;1.00;;;;;;4992130;28;20490;-67
2021/05/30 11:41:33;;;;;;;56.87;1.70;;;30.30;1.00;;;;;;4992244;28;20595;-67
2021/05/30 11:44:08;;;;;;;57.03;2.70;;;31.60;1.00;;;;;;4992409;28;21029;-67
2021/05/30 11:46:43;;;;;;;56.83;1.80;;;32.40;1.00;;;;;;4991883;28;20538;-67
2021/05/30 11:49:17;;;;;;;56.73;1.70;;;33.20;1.00;;;;;;4992051;28;20450;-67
2021/05/30 11:51:52;;;;;;;56.63;1.60;;;33.60;1.00;;;;;;4992329;28;20530;-67
2021/05/30 11:54:20;;;;;;;56.57;1.70;;;33.60;1.00;;;;;;4992217;28;20947;-67
2021/05/30 11:56:48;;;;;;;56.87;1.90;;;33.00;1.00;;;;;;4991663;28;20526;-67
2021/05/30 11:59:15;;;;;;;56.97;1.90;;;31.80;1.00;;;;;;4992108;28;20683;-68
2021/05/30 12:01:48;;;;;;;56.83;1.70;;;31.70;1.00;;;;;;4992185;28;20455;-66
2021/05/30 12:04:27;;;;;;;56.97;1.70;;;32.20;1.00;;;;;;4992340;28;20513;-67
2021/05/30 12:06:54;;;;;;;56.83;1.70;;;31.50;1.00;;;;;;4991798;28;20474;-67
2021/05/30 12:09:21;;;;;;;56.57;1.80;;;31.10;1.00;;;;;;4992048;28;20451;-66
2021/05/30 12:11:48;;;;;;;56.87;1.70;;;31.70;1.00;;;;;;4995609;28;20456;-67
2021/05/30 12:14:15;;;;;;;56.60;1.60;;;32.60;1.00;;;;;;4995823;28;20485;-67
2021/05/30 12:16:41;;;;;;;56.70;1.80;;;33.50;1.00;;;;;;4995338;28;20578;-67
2021/05/30 12:19:08;;;;;;;56.63;1.67;;;34.40;1.00;;;;;;4995510;28;20453;-67
2021/05/30 12:21:40;;;;;;;56.60;1.80;;;34.90;1.00;;;;;;4995367;28;20939;-67
2021/05/30 12:24:08;;;;;;;56.80;1.90;;;35.20;1.00;;;;;;4995685;28;20493;-67
2021/05/30 12:26:35;;;;;;;56.80;1.63;;;35.50;1.00;;;;;;4995252;28;20542;-67
2021/05/30 12:29:02;;;;;;;56.73;2.10;;;36.00;1.00;;;;;;4995551;28;20541;-68
2021/05/30 12:31:28;;;;;;;56.77;2.10;;;36.30;1.00;;;;;;4995548;28;20889;-67
2021/05/30 12:33:56;;;;;;;56.57;1.60;;;36.40;1.00;;;;;;4995329;28;20451;-67
2021/05/30 12:36:31;;;;;;;56.80;2.23;;;36.40;1.00;;;;;;4994852;28;20886;-68
2021/05/30 12:39:05;;;;;;;56.47;1.80;;;36.50;1.00;;;;;;4995217;28;20544;-67
2021/05/30 12:41:33;;;;;;;56.43;1.60;;;35.90;1.00;;;;;;4995387;28;20458;-67
2021/05/30 12:44:09;;;;;;;56.57;1.60;;;35.00;1.00;;;;;;4995061;28;20969;-67
2021/05/30 12:46:36;;;;;;;56.37;1.80;;;34.50;1.00;;;;;;4994734;28;20849;-67
2021/05/30 12:49:13;;;;;;;56.70;2.07;;;34.90;1.00;;;;;;4994867;28;20466;-67
2021/05/30 12:51:55;;;;;;;56.60;1.77;;;35.00;1.00;;;;;;4995156;28;20447;-68
2021/05/30 12:54:23;;;;;;;56.77;2.23;;;35.60;1.00;;;;;;4994857;28;20534;-67
2021/05/30 12:56:51;;;;;;;57.00;2.43;;;35.50;1.00;;;;;;4994554;28;20573;-66
2021/05/30 12:59:18;;;;;;;56.67;1.63;;;35.30;1.00;;;;;;4994638;28;20481;-67
2021/05/30 13:01:46;;;;;;;56.73;1.83;;;35.20;1.00;;;;;;4994883;28;20489;-67